Time;durP1;ratioP1;P1;durP2;ratioP2;P2;SDS_P1;SDS_P2;PMS_P1;PMS_P2;Temp;Humidity;BMP_temperature;BMP_pressure;BME280_temperature;BME280_humidity;BME280_pressure;Samples;Min_cycle;Max_cycle;Signal;HPM_P1;HPM_P2
2022/01/08 00:00:34;;;;;;;;;;;;;;;16.37;46.93;101087.69;5046453;28;19929;-42
2022/01/08 00:03:00;;;;;;;;;;;;;;;16.35;46.86;101077.09;5050278;28;19939;-42
2022/01/08 00:05:27;;;;;;;;;;;;;;;16.33;46.54;101081.75;5048463;28;20311;-42
2022/01/08 00:07:54;;;;;;;;;;;;;;;16.32;46.30;101085.41;5048338;28;19925;-42
2022/01/08 00:10:22;;;;;;;;;;;;;;;16.30;47.09;101079.34;5049121;28;20065;-42
2022/01/08 00:12:50;;;;;;;;;;;;;;;16.29;46.86;101083.03;5049242;28;20384;-41
2022/01/08 00:15:17;;;;;;;;;;;;;;;16.28;47.11;101090.19;5047796;28;19931;-41
2022/01/08 00:17:44;;;;;;;;;;;;;;;16.28;47.71;101090.19;5049945;28;20328;-41
2022/01/08 00:20:11;;;;;;;;;;;;;;;16.26;47.71;101086.81;5051173;28;19975;-42
2022/01/08 00:22:37;;;;;;;;;;;;;;;16.25;47.33;101101.16;5047075;28;19933;-42
2022/01/08 00:25:04;;;;;;;;;;;;;;;16.25;47.51;101108.34;5049333;28;20276;-43
2022/01/08 00:27:31;;;;;;;;;;;;;;;16.22;47.23;101106.78;5051017;28;19929;-42
2022/01/08 00:29:57;;;;;;;;;;;;;;;16.22;47.13;101106.78;5047020;28;19928;-43
2022/01/08 00:32:23;;;;;;;;;;;;;;;16.21;47.02;101106.91;5050333;28;19929;-42
2022/01/08 00:34:50;;;;;;;;;;;;;;;16.22;47.60;101108.59;5050543;28;19924;-43
2022/01/08 00:37:16;;;;;;;;;;;;;;;16.22;48.02;101114.81;5049556;28;19933;-42
2022/01/08 00:39:44;;;;;;;;;;;;;;;16.21;47.67;101115.78;5050186;28;19947;-43
2022/01/08 00:42:10;;;;;;;;;;;;;;;16.20;47.65;101118.56;5046608;28;20017;-42
2022/01/08 00:44:37;;;;;;;;;;;;;;;16.19;47.20;101117.72;5048699;28;19929;-42
2022/01/08 00:47:04;;;;;;;;;;;;;;;16.17;47.17;101119.72;5051820;28;19928;-42
2022/01/08 00:49:30;;;;;;;;;;;;;;;16.17;47.69;101122.38;5050283;28;19963;-42
2022/01/08 00:51:57;;;;;;;;;;;;;;;16.17;48.04;101121.53;5041796;28;19929;-42
2022/01/08 00:54:23;;;;;;;;;;;;;;;16.15;47.25;101118.13;5047489;28;19931;-42
2022/01/08 00:56:50;;;;;;;;;;;;;;;16.15;47.47;101118.13;5048953;28;20152;-42
2022/01/08 00:59:17;;;;;;;;;;;;;;;16.15;47.25;101118.13;5048193;28;19932;-42
2022/01/08 01:01:43;;;;;;;;;;;;;;;16.13;47.46;101123.63;5044202;28;20338;-42
2022/01/08 01:04:10;;;;;;;;;;;;;;;16.13;47.72;101117.44;5048037;28;19932;-42
2022/01/08 01:06:36;;;;;;;;;;;;;;;16.12;47.34;101118.41;5039380;28;19935;-42
2022/01/08 01:09:03;;;;;;;;;;;;;;;16.13;47.76;101117.44;5046870;28;20047;-42
2022/01/08 01:11:29;;;;;;;;;;;;;;;16.12;47.02;101113.06;5042481;28;20392;-42
2022/01/08 01:13:55;;;;;;;;;;;;;;;16.11;47.96;101124.75;5049295;28;19951;-42
2022/01/08 01:16:22;;;;;;;;;;;;;;;16.09;46.85;101116.88;5044665;28;19929;-41
2022/01/08 01:18:48;;;;;;;;;;;;;;;16.09;47.12;101111.53;5048846;28;20370;-42
2022/01/08 01:21:15;;;;;;;;;;;;;;;16.08;47.17;101117.84;5046372;28;20011;-42
2022/01/08 01:23:43;;;;;;;;;;;;;;;16.07;47.79;101113.47;5044344;28;19929;-42
2022/01/08 01:26:15;;;;;;;;;;;;;;;16.06;46.89;101111.78;5042405;28;19931;-42
2022/01/08 01:28:48;;;;;;;;;;;;;;;16.04;47.01;101114.59;5046016;28;19935;-41
2022/01/08 01:47:15;;;;;;;;;;;;;;;15.98;47.27;101101.75;5048042;28;19925;-42
2022/01/08 01:49:43;;;;;;;;;;;;;;;15.98;47.40;101099.06;5046876;28;19928;-42
2022/01/08 01:52:11;;;;;;;;;;;;;;;15.97;47.27;101109.91;5043922;28;19925;-42
2022/01/08 01:54:38;;;;;;;;;;;;;;;15.96;48.07;101101.06;5046611;28;19936;-42
2022/01/08 01:57:06;;;;;;;;;;;;;;;15.95;48.06;101109.19;5046168;28;20284;-42
2022/01/08 01:59:33;;;;;;;;;;;;;;;15.94;47.41;101111.03;5043141;28;20035;-42
2022/01/08 02:02:00;;;;;;;;;;;;;;;15.94;47.12;101112.84;5043312;28;20239;-42
2022/01/08 02:04:27;;;;;;;;;;;;;;;15.93;47.99;101125.38;5042142;28;20187;-42
2022/01/08 02:06:53;;;;;;;;;;;;;;;15.91;47.30;101124.66;5042295;28;19925;-42
2022/01/08 02:09:19;;;;;;;;;;;;;;;15.91;48.12;101121.13;5047545;28;19929;-42
2022/01/08 02:12:03;;;;;;;;;;;;;;;15.91;47.81;101121.97;5040240;28;20024;-41
2022/01/08 02:14:31;;;;;;;;;;;;;;;15.90;48.36;101130.13;5043806;28;19927;-42
2022/01/08 02:16:57;;;;;;;;;;;;;;;15.89;47.34;101129.28;5044162;28;20011;-42
2022/01/08 02:19:24;;;;;;;;;;;;;;;15.89;48.28;101123.09;5043301;28;19925;-42
2022/01/08 02:21:52;;;;;;;;;;;;;;;15.88;47.48;101135.63;5041964;28;19925;-42
2022/01/08 02:24:19;;;;;;;;;;;;;;;15.88;47.65;101132.94;5047929;28;19932;-42
2022/01/08 02:26:45;;;;;;;;;;;;;;;15.89;47.37;101136.47;5042419;28;20008;-42
2022/01/08 02:29:15;;;;;;;;;;;;;;;15.88;48.07;101140.09;5043760;28;19939;-41
2022/01/08 02:31:52;;;;;;;;;;;;;;;15.87;48.10;101135.75;5044474;28;19928;-41
2022/01/08 02:34:18;;;;;;;;;;;;;;;15.87;47.26;101143.75;5043235;28;19933;-42
2022/01/08 02:36:44;;;;;;;;;;;;;;;15.86;48.32;101139.41;5045394;28;19925;-42
2022/01/08 02:39:12;;;;;;;;;;;;;;;15.86;47.59;101142.06;5046481;28;19980;-41
2022/01/08 02:41:39;;;;;;;;;;;;;;;15.85;47.37;101140.38;5045800;28;19925;-40
2022/01/08 02:44:06;;;;;;;;;;;;;;;15.84;47.44;101136.88;5049669;28;19929;-41
2022/01/08 02:46:33;;;;;;;;;;;;;;;15.85;47.63;101127.03;5045649;28;20314;-42
2022/01/08 02:48:59;;;;;;;;;;;;;;;15.83;47.76;101137.81;5039106;28;19929;-41
2022/01/08 02:51:25;;;;;;;;;;;;;;;15.82;48.24;101133.47;5044830;28;19948;-43
2022/01/08 02:53:52;;;;;;;;;;;;;;;15.82;47.81;101129.94;5041996;28;19931;-43
2022/01/08 02:56:18;;;;;;;;;;;;;;;15.81;47.83;101126.44;5044803;28;20333;-43
2022/01/08 02:58:44;;;;;;;;;;;;;;;15.81;47.75;101128.25;5045961;28;19935;-43
2022/01/08 03:01:11;;;;;;;;;;;;;;;15.81;47.89;101133.59;5044260;28;20701;-42
2022/01/08 03:03:37;;;;;;;;;;;;;;;15.78;47.84;101124.88;5041720;28;20258;-40
2022/01/08 03:06:04;;;;;;;;;;;;;;;15.78;47.86;101119.50;5044066;28;19928;-41
2022/01/08 03:08:30;;;;;;;;;;;;;;;15.78;48.13;101122.19;5046213;28;19925;-40
2022/01/08 03:10:56;;;;;;;;;;;;;;;15.77;48.49;101122.34;5042666;28;20041;-41
2022/01/08 03:13:23;;;;;;;;;;;;;;;15.76;48.02;101124.16;5045589;28;19939;-42
2022/01/08 03:15:49;;;;;;;;;;;;;;;15.77;48.57;101128.53;5040682;28;20340;-42
2022/01/08 03:18:16;;;;;;;;;;;;;;;15.76;48.87;101134.84;5042258;28;19932;-42
2022/01/08 03:20:49;;;;;;;;;;;;;;;15.74;48.78;101131.44;5044454;28;19940;-44
2022/01/08 03:23:17;;;;;;;;;;;;;;;15.75;48.92;101138.47;5040708;28;20331;-41
2022/01/08 03:25:44;;;;;;;;;;;;;;;15.73;48.09;101137.78;5045990;28;19929;-42
2022/01/08 03:28:11;;;;;;;;;;;;;;;15.74;48.23;101130.59;5046316;28;20271;-41
2022/01/08 03:30:39;;;;;;;;;;;;;;;15.75;48.95;101134.97;5045591;28;19935;-43
2022/01/08 03:33:05;;;;;;;;;;;;;;;15.73;47.96;101135.09;5039876;28;19925;-42
2022/01/08 03:35:33;;;;;;;;;;;;;;;15.73;48.72;101131.59;5043448;28;19925;-42
2022/01/08 03:37:59;;;;;;;;;;;;;;;15.73;47.93;101144.97;5043620;28;19979;-41
2022/01/08 03:40:26;;;;;;;;;;;;;;;15.72;48.73;101132.56;5039898;28;19926;-42
2022/01/08 03:42:52;;;;;;;;;;;;;;;15.72;49.08;101135.25;5045172;28;19924;-43
2022/01/08 03:45:18;;;;;;;;;;;;;;;15.71;47.96;101133.53;5040882;28;19925;-43
2022/01/08 03:50:14;;;;;;;;;;;;;;;15.69;48.72;101131.00;5041875;28;19936;-41
2022/01/08 03:52:41;;;;;;;;;;;;;;;15.70;48.86;101139.88;5041746;28;19925;-43
2022/01/08 03:55:07;;;;;;;;;;;;;;;15.69;47.94;101140.84;5044513;28;19935;-42
2022/01/08 03:57:33;;;;;;;;;;;;;;;15.67;48.51;101148.97;5045246;28;19924;-42
2022/01/08 04:00:00;;;;;;;;;;;;;;;15.66;48.51;101147.28;5041270;28;19932;-42
2022/01/08 04:02:26;;;;;;;;;;;;;;;15.66;48.28;101144.63;5039004;28;19931;-41
2022/01/08 04:04:53;;;;;;;;;;;;;;;15.66;48.00;101144.63;5042766;28;19925;-42
2022/01/08 04:07:19;;;;;;;;;;;;;;;15.65;48.53;101140.25;5047946;28;19925;-42
2022/01/08 04:09:46;;;;;;;;;;;;;;;15.66;47.97;101143.78;5047079;28;19932;-41
2022/01/08 04:12:16;;;;;;;;;;;;;;;15.65;48.00;101145.59;5044915;28;20028;-42
2022/01/08 04:15:03;;;;;;;;;;;;;;;15.63;48.19;101142.16;5044370;28;20650;-40
2022/01/08 04:17:30;;;;;;;;;;;;;;;15.63;48.12;101136.81;5042642;28;19924;-42
2022/01/08 04:19:56;;;;;;;;;;;;;;;15.63;47.93;101141.31;5042634;28;20316;-41
2022/01/08 04:22:24;;;;;;;;;;;;;;;15.63;47.96;101150.19;5051190;28;19933;-41
2022/01/08 04:24:51;;;;;;;;;;;;;;;15.61;47.92;101162.84;5041495;28;19964;-41
2022/01/08 04:27:17;;;;;;;;;;;;;;;15.61;48.65;101162.00;5040291;28;19935;-41
2022/01/08 04:29:44;;;;;;;;;;;;;;;15.61;47.95;101164.66;5042040;28;19928;-41
2022/01/08 04:32:10;;;;;;;;;;;;;;;15.60;47.83;101163.84;5042583;28;19974;-42
2022/01/08 04:34:36;;;;;;;;;;;;;;;15.60;49.00;101158.47;5037406;28;19929;-42
2022/01/08 04:37:04;;;;;;;;;;;;;;;15.59;47.94;101159.44;5052241;28;19997;-40
2022/01/08 04:39:30;;;;;;;;;;;;;;;15.58;47.97;101163.09;5045849;28;19929;-42
2022/01/08 04:41:56;;;;;;;;;;;;;;;15.58;48.00;101164.91;5046243;28;19943;-41
2022/01/08 04:44:23;;;;;;;;;;;;;;;15.58;47.84;101170.28;5045496;28;19928;-42
2022/01/08 04:46:49;;;;;;;;;;;;;;;15.55;48.72;101164.19;5045943;28;20019;-41
2022/01/08 04:49:15;;;;;;;;;;;;;;;15.55;47.59;101168.69;5050113;28;19932;-41
2022/01/08 04:51:42;;;;;;;;;;;;;;;15.55;47.58;101166.03;5044217;28;19935;-41
2022/01/08 04:54:08;;;;;;;;;;;;;;;15.55;48.55;101166.03;5050234;28;20247;-41
2022/01/08 04:56:34;;;;;;;;;;;;;;;15.52;48.65;101166.31;5046079;28;19929;-42
2022/01/08 04:59:01;;;;;;;;;;;;;;;15.52;48.23;101171.66;5046164;28;20025;-40
2022/01/08 05:01:27;;;;;;;;;;;;;;;15.50;47.74;101174.44;5044313;28;19947;-41
2022/01/08 05:03:54;;;;;;;;;;;;;;;15.50;48.04;101176.25;5045546;28;19931;-42
2022/01/08 05:06:20;;;;;;;;;;;;;;;15.49;48.42;101174.56;5045232;28;19940;-43
2022/01/08 05:08:46;;;;;;;;;;;;;;;15.49;47.66;101169.22;5042814;28;19925;-43
2022/01/08 05:11:13;;;;;;;;;;;;;;;15.49;47.85;101169.22;5042788;28;19931;-42
2022/01/08 05:13:39;;;;;;;;;;;;;;;15.48;48.19;101167.53;5044515;28;19931;-42
2022/01/08 05:16:06;;;;;;;;;;;;;;;15.46;48.09;101164.97;5042909;28;19925;-43
2022/01/08 05:18:33;;;;;;;;;;;;;;;15.47;48.01;101171.16;5048523;28;20105;-42
2022/01/08 05:21:16;;;;;;;;;;;;;;;15.44;47.93;101177.63;5045382;28;19931;-43
2022/01/08 05:23:42;;;;;;;;;;;;;;;15.44;47.10;101179.47;5040532;28;19925;-41
2022/01/08 05:26:09;;;;;;;;;;;;;;;15.43;48.20;101175.06;5046449;28;20263;-41
2022/01/08 05:28:35;;;;;;;;;;;;;;;15.42;47.19;101176.06;5042493;28;20340;-41
2022/01/08 05:31:02;;;;;;;;;;;;;;;15.40;47.57;101164.66;5045732;28;19929;-45
2022/01/08 05:33:28;;;;;;;;;;;;;;;15.41;48.08;101174.38;5047804;28;19933;-42
2022/01/08 05:35:54;;;;;;;;;;;;;;;15.39;48.09;101171.81;5043947;28;19929;-42
2022/01/08 05:38:21;;;;;;;;;;;;;;;15.39;47.79;101170.97;5047101;28;19933;-41
2022/01/08 05:40:47;;;;;;;;;;;;;;;15.38;47.52;101175.44;5044222;28;20031;-41
2022/01/08 05:43:13;;;;;;;;;;;;;;;15.37;47.87;101172.94;5045020;28;19925;-42
2022/01/08 05:45:40;;;;;;;;;;;;;;;15.38;47.70;101185.28;5045947;28;19928;-42
2022/01/08 05:48:07;;;;;;;;;;;;;;;15.37;47.93;101194.28;5047002;28;20453;-41
2022/01/08 05:50:33;;;;;;;;;;;;;;;15.37;48.09;101202.31;5042301;28;19925;-42
2022/01/08 05:53:00;;;;;;;;;;;;;;;15.36;48.19;101208.63;5045885;28;19931;-42
2022/01/08 05:55:26;;;;;;;;;;;;;;;15.36;47.32;101204.13;5049571;28;19935;-43
2022/01/08 05:57:52;;;;;;;;;;;;;;;15.34;47.70;101208.72;5043922;28;19925;-42
2022/01/08 06:00:19;;;;;;;;;;;;;;;15.35;48.15;101207.75;5051125;28;19932;-42
2022/01/08 06:02:45;;;;;;;;;;;;;;;15.35;48.41;101204.25;5044373;28;20243;-43
2022/01/08 06:05:12;;;;;;;;;;;;;;;15.34;47.43;101200.72;5044169;28;19924;-43
2022/01/08 06:07:38;;;;;;;;;;;;;;;15.33;47.88;101199.03;5041356;28;19929;-42
2022/01/08 06:10:05;;;;;;;;;;;;;;;15.31;48.22;101199.16;5046393;28;19933;-42
2022/01/08 06:12:31;;;;;;;;;;;;;;;15.29;48.22;101193.09;5044556;28;19929;-43
2022/01/08 06:14:58;;;;;;;;;;;;;;;15.31;48.57;101195.63;5044454;28;19991;-41
2022/01/08 06:17:24;;;;;;;;;;;;;;;15.36;47.65;101185.44;5045829;28;19931;-42
2022/01/08 06:19:51;;;;;;;;;;;;;;;15.44;47.53;101185.63;5043174;28;19932;-43
2022/01/08 06:22:17;;;;;;;;;;;;;;;15.53;47.19;101181.34;5048103;28;19933;-41
2022/01/08 06:24:44;;;;;;;;;;;;;;;15.63;48.17;101186.75;5044875;28;19925;-43
2022/01/08 06:27:10;;;;;;;;;;;;;;;15.72;47.01;101178.00;5041761;28;19937;-43
2022/01/08 06:29:38;;;;;;;;;;;;;;;15.84;47.25;101181.44;5043665;28;19967;-42
2022/01/08 06:32:04;;;;;;;;;;;;;;;15.94;46.84;101174.34;5044703;28;19947;-43
2022/01/08 06:34:30;;;;;;;;;;;;;;;16.07;47.19;101176.78;5045112;28;19925;-43
2022/01/08 06:36:57;;;;;;;;;;;;;;;16.17;47.15;101167.84;5044492;28;20051;-43
2022/01/08 06:39:23;;;;;;;;;;;;;;;16.28;46.71;101170.44;5042684;28;19932;-42
2022/01/08 06:41:49;;;;;;;;;;;;;;;16.38;47.04;101164.28;5042221;28;19928;-43
2022/01/08 06:44:16;;;;;;;;;;;;;;;16.47;46.30;101169.66;5044833;28;19931;-43
2022/01/08 06:46:42;;;;;;;;;;;;;;;16.56;46.96;101165.31;5044757;28;20476;-42
2022/01/08 06:49:09;;;;;;;;;;;;;;;16.63;45.65;101161.09;5040726;28;20274;-41
2022/01/08 06:51:35;;;;;;;;;;;;;;;16.70;45.96;101169.44;5043078;28;20028;-42
2022/01/08 06:54:02;;;;;;;;;;;;;;;16.77;45.47;101163.44;5037532;28;20540;-42
2022/01/08 06:56:28;;;;;;;;;;;;;;;16.84;45.32;101170.91;5041451;28;19925;-41
2022/01/08 06:58:55;;;;;;;;;;;;;;;16.87;45.91;101163.44;5042583;28;19928;-42
2022/01/08 07:01:22;;;;;;;;;;;;;;;16.91;45.45;101167.53;5041364;28;19932;-42
2022/01/08 07:03:48;;;;;;;;;;;;;;;16.94;45.92;101166.44;5038211;28;19940;-43
2022/01/08 07:06:14;;;;;;;;;;;;;;;16.95;44.89;101162.75;5039821;28;19931;-43
2022/01/08 07:08:41;;;;;;;;;;;;;;;16.94;45.32;101166.44;5039145;28;19929;-43
2022/01/08 07:11:07;;;;;;;;;;;;;;;16.94;45.05;101158.41;5046665;28;19948;-42
2022/01/08 07:13:34;;;;;;;;;;;;;;;16.92;45.33;101160.34;5043988;28;19928;-43
2022/01/08 07:16:00;;;;;;;;;;;;;;;16.87;44.97;101155.41;5040466;28;20334;-43
2022/01/08 07:18:26;;;;;;;;;;;;;;;16.84;45.24;101160.19;5043073;28;19925;-43
2022/01/08 07:20:54;;;;;;;;;;;;;;;16.77;44.39;101149.22;5042829;28;19929;-43
2022/01/08 07:23:21;;;;;;;;;;;;;;;16.72;44.53;101152.28;5043800;28;19939;-43
2022/01/08 07:25:48;;;;;;;;;;;;;;;16.67;45.24;101154.50;5039417;28;20019;-43
2022/01/08 07:28:14;;;;;;;;;;;;;;;16.62;45.82;101161.25;5039224;28;19924;-42
2022/01/08 07:30:40;;;;;;;;;;;;;;;16.56;44.65;101151.94;5040669;28;20032;-42
2022/01/08 07:33:07;;;;;;;;;;;;;;;16.52;45.60;101145.16;5044387;28;19925;-43
2022/01/08 07:35:33;;;;;;;;;;;;;;;16.48;45.85;101147.28;5037231;28;19956;-42
2022/01/08 07:38:00;;;;;;;;;;;;;;;16.45;45.27;101149.38;5041586;28;19929;-43
2022/01/08 07:40:26;;;;;;;;;;;;;;;16.41;44.74;101142.59;5038794;28;20501;-42
2022/01/08 07:42:53;;;;;;;;;;;;;;;16.34;45.54;101146.81;5043239;28;20228;-40
2022/01/08 07:45:19;;;;;;;;;;;;;;;16.32;45.54;101144.25;5042764;28;19933;-41
2022/01/08 07:47:46;;;;;;;;;;;;;;;16.28;45.49;101156.19;5040420;28;20369;-42
2022/01/08 07:50:12;;;;;;;;;;;;;;;16.24;45.10;101152.97;5038579;28;19937;-42
2022/01/08 07:52:39;;;;;;;;;;;;;;;16.21;45.76;101149.72;5039751;28;20352;-41
2022/01/08 07:55:05;;;;;;;;;;;;;;;16.18;45.59;101148.13;5038211;28;19932;-42
2022/01/08 07:57:32;;;;;;;;;;;;;;;16.14;44.71;101143.19;5042716;28;19936;-43
2022/01/08 07:59:58;;;;;;;;;;;;;;;16.10;44.88;101139.09;5043856;28;19939;-42
2022/01/08 08:02:24;;;;;;;;;;;;;;;16.09;45.60;101140.09;5039462;28;19933;-43
2022/01/08 08:04:51;;;;;;;;;;;;;;;16.06;45.19;101137.69;5041992;28;19933;-42
2022/01/08 08:07:28;;;;;;;;;;;;;;;16.03;45.04;101133.44;5040380;28;19972;-42
2022/01/08 08:09:54;;;;;;;;;;;;;;;15.99;45.09;101130.16;5044459;28;20356;-42
2022/01/08 08:12:22;;;;;;;;;;;;;;;15.97;46.07;101125.97;5046033;28;20357;-41
2022/01/08 08:14:49;;;;;;;;;;;;;;;15.92;45.13;101118.34;5045388;28;19935;-43
2022/01/08 08:17:15;;;;;;;;;;;;;;;15.91;45.60;101107.75;5041721;28;20023;-43
2022/01/08 08:19:41;;;;;;;;;;;;;;;15.90;45.49;101116.78;5041545;28;19929;-43
2022/01/08 08:22:08;;;;;;;;;;;;;;;15.88;45.79;101105.34;5044515;28;20148;-43
2022/01/08 08:24:34;;;;;;;;;;;;;;;15.86;45.50;101108.16;5045667;28;19928;-43
2022/01/08 08:27:01;;;;;;;;;;;;;;;15.84;45.48;101103.91;5044623;28;19964;-42
2022/01/08 08:29:27;;;;;;;;;;;;;;;15.81;45.43;101105.06;5044176;28;19925;-43
2022/01/08 08:31:54;;;;;;;;;;;;;;;15.79;46.27;101107.84;5042438;28;19929;-43
2022/01/08 08:34:20;;;;;;;;;;;;;;;15.77;45.64;101100.97;5048827;28;19929;-42
2022/01/08 08:36:46;;;;;;;;;;;;;;;15.74;45.63;101095.88;5040588;28;20380;-43
2022/01/08 08:39:13;;;;;;;;;;;;;;;15.73;46.51;101094.19;5039112;28;19925;-43
2022/01/08 08:41:39;;;;;;;;;;;;;;;15.69;45.34;101093.59;5044567;28;19925;-41
2022/01/08 08:44:05;;;;;;;;;;;;;;;15.69;46.33;101082.91;5043462;28;19925;-43
2022/01/08 08:46:32;;;;;;;;;;;;;;;15.68;46.27;101086.56;5044411;28;19929;-42
2022/01/08 08:48:58;;;;;;;;;;;;;;;15.64;46.29;101087.78;5041739;28;20380;-43
2022/01/08 08:51:25;;;;;;;;;;;;;;;15.63;45.88;101090.56;5042593;28;19935;-43
2022/01/08 08:53:51;;;;;;;;;;;;;;;15.62;45.61;101088.88;5045588;28;19929;-43
2022/01/08 08:56:17;;;;;;;;;;;;;;;15.60;46.19;101078.34;5047323;28;19929;-42
2022/01/08 08:58:44;;;;;;;;;;;;;;;15.60;45.88;101073.00;5039566;28;19929;-42
2022/01/08 09:01:10;;;;;;;;;;;;;;;15.59;45.77;101070.44;5041029;28;19929;-43
2022/01/08 09:03:36;;;;;;;;;;;;;;;15.58;45.99;101076.75;5041972;28;19935;-42
2022/01/08 09:06:03;;;;;;;;;;;;;;;15.57;45.40;101073.25;5041427;28;20328;-42
2022/01/08 09:08:29;;;;;;;;;;;;;;;15.55;45.80;101067.16;5041114;28;20043;-43
2022/01/08 09:10:56;;;;;;;;;;;;;;;15.54;46.36;101068.16;5043350;28;19925;-42
2022/01/08 09:13:25;;;;;;;;;;;;;;;15.52;46.01;101072.81;5038854;28;19931;-43
2022/01/08 09:15:51;;;;;;;;;;;;;;;15.51;46.34;101065.75;5045987;28;19933;-41
2022/01/08 09:18:18;;;;;;;;;;;;;;;15.50;45.22;101062.22;5039704;28;19943;-42
2022/01/08 09:20:47;;;;;;;;;;;;;;;15.49;45.70;101054.34;5041653;28;20280;-42
2022/01/08 09:23:14;;;;;;;;;;;;;;;15.48;45.42;101060.69;5049268;28;19929;-42
2022/01/08 09:25:40;;;;;;;;;;;;;;;15.45;45.73;101056.44;5044586;28;20284;-42
2022/01/08 09:28:07;;;;;;;;;;;;;;;15.45;45.99;101052.94;5044998;28;19939;-42
2022/01/08 09:30:33;;;;;;;;;;;;;;;15.44;45.44;101049.41;5044126;28;20019;-41
2022/01/08 09:33:00;;;;;;;;;;;;;;;15.48;45.13;101039.31;5041530;28;19950;-42
2022/01/08 09:35:26;;;;;;;;;;;;;;;15.54;46.16;101026.25;5044244;28;19982;-41
2022/01/08 09:37:53;;;;;;;;;;;;;;;15.63;44.84;101026.44;5044080;28;19929;-42
2022/01/08 09:40:21;;;;;;;;;;;;;;;15.71;44.81;101027.50;5042507;28;20015;-42
2022/01/08 09:42:48;;;;;;;;;;;;;;;15.81;45.54;101026.72;5046752;28;19929;-42
2022/01/08 09:45:14;;;;;;;;;;;;;;;15.90;44.59;101004.50;5044905;28;19955;-42
2022/01/08 09:47:40;;;;;;;;;;;;;;;16.02;44.44;101006.94;5040937;28;20137;-42
2022/01/08 09:50:07;;;;;;;;;;;;;;;16.12;44.82;100990.94;5044223;28;20067;-40
2022/01/08 09:52:34;;;;;;;;;;;;;;;16.23;43.93;100990.78;5042859;28;19932;-41
2022/01/08 09:55:00;;;;;;;;;;;;;;;16.32;44.74;100988.25;5044672;28;20487;-43
2022/01/08 09:57:27;;;;;;;;;;;;;;;16.41;43.90;100987.44;5046423;28;20232;-43
2022/01/08 09:59:53;;;;;;;;;;;;;;;16.49;44.21;100979.56;5039111;28;20233;-42
2022/01/08 10:02:21;;;;;;;;;;;;;;;16.53;43.16;100979.16;5043391;28;20280;-41
2022/01/08 10:04:47;;;;;;;;;;;;;;;16.59;43.40;100968.84;5040235;28;19931;-41
2022/01/08 10:07:16;;;;;;;;;;;;;;;16.63;43.15;100965.75;5041738;28;20278;-41
2022/01/08 10:10:02;;;;;;;;;;;;;;;16.65;42.89;100954.94;5042253;28;20457;-41
2022/01/08 10:12:36;;;;;;;;;;;;;;;16.65;42.69;100945.06;5044549;28;19935;-42
2022/01/08 10:17:48;;;;;;;;;;;;;;;16.61;43.39;100924.91;5042133;28;20267;-41
2022/01/08 10:20:50;;;;;;;;;;;;;;;16.58;42.96;100917.19;5043526;28;19924;-42
2022/01/08 10:23:24;;;;;;;;;;;;;;;16.52;43.75;100915.94;5037562;28;20456;-41
2022/01/08 10:25:54;;;;;;;;;;;;;;;16.47;43.34;100899.44;5038298;28;19939;-41
2022/01/08 10:28:31;;;;;;;;;;;;;;;16.43;43.56;100889.16;5043450;28;19964;-42
2022/01/08 10:31:05;;;;;;;;;;;;;;;16.38;42.99;100889.59;5043944;28;19928;-42
2022/01/08 10:33:32;;;;;;;;;;;;;;;16.36;43.49;100878.19;5043135;28;19954;-42
2022/01/08 10:35:58;;;;;;;;;;;;;;;16.32;43.98;100881.28;5040277;28;19928;-42
2022/01/08 10:38:28;;;;;;;;;;;;;;;16.28;44.31;100870.88;5047753;28;19933;-40
2022/01/08 10:40:54;;;;;;;;;;;;;;;16.26;44.27;100872.84;5042449;28;20024;-43
2022/01/08 10:43:30;;;;;;;;;;;;;;;16.23;44.23;100867.75;5044784;28;19963;-43
2022/01/08 10:46:08;;;;;;;;;;;;;;;16.22;43.40;100875.94;5045760;28;20020;-42
2022/01/08 10:48:35;;;;;;;;;;;;;;;16.20;44.07;100867.19;5042026;28;19967;-43
2022/01/08 10:51:08;;;;;;;;;;;;;;;16.16;43.93;100866.66;5041208;28;19939;-43
2022/01/08 10:53:53;;;;;;;;;;;;;;;16.15;43.42;100858.75;5043247;28;19924;-41
2022/01/08 10:56:20;;;;;;;;;;;;;;;16.13;43.24;100855.41;5039126;28;19925;-41
2022/01/08 10:58:52;;;;;;;;;;;;;;;16.11;43.99;100839.47;5038877;28;19939;-41
2022/01/08 11:01:37;;;;;;;;;;;;;;;16.10;44.01;100840.47;5039805;28;20000;-41
2022/01/08 11:04:05;;;;;;;;;;;;;;;16.06;43.57;100825.69;5039173;28;20370;-42
2022/01/08 11:06:31;;;;;;;;;;;;;;;16.04;44.33;100827.69;5040188;28;20277;-42
2022/01/08 11:09:02;;;;;;;;;;;;;;;16.01;43.83;100814.59;5039627;28;19925;-42
2022/01/08 11:11:30;;;;;;;;;;;;;;;15.98;43.60;100807.69;5041225;28;20028;-42
2022/01/08 11:14:04;;;;;;;;;;;;;;;15.97;43.65;100808.69;5041450;28;19929;-42
2022/01/08 11:16:31;;;;;;;;;;;;;;;15.96;44.29;100804.34;5034905;28;19943;-42
2022/01/08 11:18:58;;;;;;;;;;;;;;;15.92;43.45;100784.22;5039206;28;19972;-42
2022/01/08 11:21:29;;;;;;;;;;;;;;;15.89;43.97;100778.31;5032646;28;20621;-41
2022/01/08 11:23:57;;;;;;;;;;;;;;;15.88;43.53;100776.59;5041442;28;20464;-42
2022/01/08 11:26:25;;;;;;;;;;;;;;;15.84;43.46;100762.69;5041132;28;19929;-42
2022/01/08 11:28:54;;;;;;;;;;;;;;;15.84;43.39;100753.81;5039429;28;20449;-42
2022/01/08 11:31:21;;;;;;;;;;;;;;;15.83;43.93;100742.28;5042973;28;20332;-40
2022/01/08 11:33:50;;;;;;;;;;;;;;;15.82;43.43;100742.44;5042525;28;20279;-40
2022/01/08 11:36:17;;;;;;;;;;;;;;;15.82;43.32;100731.75;5037517;28;19929;-42
2022/01/08 11:38:44;;;;;;;;;;;;;;;15.76;43.46;100717.97;5042655;28;20447;-42
2022/01/08 11:41:10;;;;;;;;;;;;;;;15.77;43.56;100716.13;5041973;28;19932;-42
2022/01/08 11:43:37;;;;;;;;;;;;;;;15.74;43.24;100714.56;5039675;28;19939;-40
2022/01/08 11:46:05;;;;;;;;;;;;;;;15.71;43.23;100709.50;5044771;28;19931;-41
2022/01/08 11:48:43;;;;;;;;;;;;;;;15.71;44.18;100698.81;5042793;28;19928;-41
2022/01/08 11:51:17;;;;;;;;;;;;;;;15.70;43.22;100688.28;5042905;28;20016;-41
2022/01/08 11:53:48;;;;;;;;;;;;;;;15.67;43.41;100685.91;5043280;28;20460;-42
2022/01/08 11:56:31;;;;;;;;;;;;;;;15.66;43.31;100677.03;5040488;28;19929;-41
2022/01/08 11:59:05;;;;;;;;;;;;;;;15.64;43.99;100662.09;5044056;28;19929;-41
2022/01/08 12:01:31;;;;;;;;;;;;;;;15.62;43.80;100645.38;5045072;28;20496;-41
2022/01/08 12:03:58;;;;;;;;;;;;;;;15.61;44.26;100635.69;5040238;28;20376;-41
2022/01/08 12:06:27;;;;;;;;;;;;;;;15.59;44.36;100621.63;5036414;28;20363;-42
2022/01/08 12:09:20;;;;;;;;;;;;;;;15.58;44.35;100612.75;5043277;28;19964;-41
2022/01/08 12:11:47;;;;;;;;;;;;;;;15.56;43.47;100596.06;5047336;28;20349;-41
2022/01/08 12:14:27;;;;;;;;;;;;;;;15.54;44.44;100590.00;5038745;28;19929;-43
2022/01/08 12:17:17;;;;;;;;;;;;;;;15.52;43.95;100586.63;5046808;28;19928;-41
2022/01/08 12:19:45;;;;;;;;;;;;;;;15.50;43.84;100575.25;5043145;28;19936;-40
2022/01/08 12:22:18;;;;;;;;;;;;;;;15.47;44.36;100576.34;5044455;28;19933;-42
2022/01/08 12:24:49;;;;;;;;;;;;;;;15.45;44.24;100562.31;5035627;28;20016;-42
2022/01/08 12:27:20;;;;;;;;;;;;;;;15.44;44.14;100563.31;5045855;28;19925;-40
2022/01/08 12:29:47;;;;;;;;;;;;;;;15.43;44.30;100547.41;5044909;28;20032;-41
2022/01/08 12:32:21;;;;;;;;;;;;;;;15.40;44.51;100537.88;5043447;28;19936;-41
2022/01/08 12:34:48;;;;;;;;;;;;;;;15.39;44.31;100530.00;5040192;28;20329;-42
2022/01/08 12:37:16;;;;;;;;;;;;;;;15.40;44.64;100518.34;5041386;28;19943;-41
2022/01/08 12:39:47;;;;;;;;;;;;;;;15.43;44.78;100512.69;5040454;28;20279;-42
2022/01/08 12:42:19;;;;;;;;;;;;;;;15.50;44.57;100484.44;5042691;28;19932;-41
2022/01/08 12:45:04;;;;;;;;;;;;;;;15.59;44.22;100488.88;5042199;28;19968;-40
2022/01/08 12:47:46;;;;;;;;;;;;;;;15.68;43.37;100464.03;5042821;28;19929;-41
2022/01/08 12:50:29;;;;;;;;;;;;;;;15.76;43.35;100445.41;5038348;28;19955;-42
2022/01/08 12:53:05;;;;;;;;;;;;;;;15.86;43.82;100433.81;5041685;28;19925;-42
2022/01/08 12:55:50;;;;;;;;;;;;;;;15.96;43.97;100426.56;5039055;28;19962;-43
2022/01/08 12:58:49;;;;;;;;;;;;;;;16.07;43.53;100406.81;5048390;28;19939;-43
2022/01/08 13:01:17;;;;;;;;;;;;;;;16.15;43.56;100397.03;5032947;28;20020;-42